Ana Sayfa
METAR-TAF:

METAR-TAF

Havaalanları :

Tela, Honduras

Enlem: 15-43N, Boylam: 087-29W, yükseklik: 3 m

Güncel hava durumu gözlemi

Rapor saat 12:00 UTC de 30 dakika önce yapıldı.
Rüzgar doğu/kuzeydoğudan 8 kt
Sıcaklık 27°C
Nem 100%
Basınç 1009 hPa
Görüş mesafesi 10 km veya daha fazla
2200 ft yükseklikte az bulutlu
2400 ft yükseklikte az bulutlu, Yükselen kümülüs.

METAR: MHTE 171200Z 06008KT 9999 FEW022 FEW024TCU 27/27 Q1009 A2980

Saat: 06:30 (12:30 UTC)


TAF: eksik

4.000'den fazla havaalanı için hava durumu gözlemleri ve tahminleri (METAR ve TAF raporları).

Kullanılabilir istasyonlar harita üzerinde sarı ve kırmızı noktalarla gösterilir.

İstasyonun adını görmek için fareyi noktanın üzerinde gezdirin.

Sonrasında hava gözlem ve tahminlerini görmek için tıklayın.

Haritayı değiştirmek için: yaklaştırmak için siyah artı işaretli yeşil düğmeye ve uzaklaştırmak için de eksi işaretli düğmeye hızla tıklayın; bitişik haritalar için yeşil okları kullanın.


METAR-TAF: